createdAt,value
2023-03-24T00:00:04.814Z,8.33
2023-03-24T00:02:32.280Z,8.33
2023-03-24T00:04:58.684Z,8.32
2023-03-24T00:07:25.298Z,8.31
2023-03-24T00:09:51.242Z,8.28
2023-03-24T00:12:17.648Z,8.26
2023-03-24T00:14:44.063Z,8.23
2023-03-24T00:17:10.437Z,8.19
2023-03-24T00:19:36.778Z,8.19
2023-03-24T00:22:03.166Z,8.24
2023-03-24T00:24:29.691Z,8.27
2023-03-24T00:26:56.076Z,8.30
2023-03-24T00:29:22.434Z,8.31
2023-03-24T00:31:48.791Z,8.27
2023-03-24T00:34:15.238Z,8.24
2023-03-24T00:36:41.602Z,8.15
2023-03-24T00:39:07.938Z,7.99
2023-03-24T00:41:34.308Z,7.88
2023-03-24T00:44:00.680Z,7.64
2023-03-24T00:46:27.038Z,7.55
2023-03-24T00:48:53.346Z,7.49
2023-03-24T00:51:19.735Z,7.56
2023-03-24T00:53:46.070Z,7.48
2023-03-24T00:56:12.415Z,7.39
2023-03-24T00:58:38.747Z,7.35
2023-03-24T01:01:05.158Z,7.30
2023-03-24T01:03:31.463Z,7.24
2023-03-24T01:05:57.860Z,7.18
2023-03-24T01:08:24.181Z,7.04
2023-03-24T01:10:50.543Z,7.05
2023-03-24T01:13:16.888Z,7.06
2023-03-24T01:15:43.303Z,7.05
2023-03-24T01:18:09.729Z,7.06
2023-03-24T01:20:36.011Z,7.04
2023-03-24T01:23:02.334Z,6.93
2023-03-24T01:25:28.714Z,6.94
2023-03-24T01:27:55.101Z,6.99
2023-03-24T01:30:21.483Z,6.99
2023-03-24T01:32:47.906Z,6.94
2023-03-24T01:35:14.232Z,6.92
2023-03-24T01:37:40.577Z,6.91
2023-03-24T01:40:06.976Z,6.86
2023-03-24T01:42:33.311Z,6.84
2023-03-24T01:44:59.713Z,6.84
2023-03-24T01:47:26.019Z,6.84
2023-03-24T01:49:52.422Z,6.80
2023-03-24T01:52:18.787Z,6.76
2023-03-24T01:54:45.173Z,6.73
2023-03-24T01:57:11.579Z,6.76
2023-03-24T01:59:37.961Z,6.83
2023-03-24T02:02:04.274Z,6.91
2023-03-24T02:04:30.739Z,6.84
2023-03-24T02:06:57.006Z,6.81
2023-03-24T02:09:23.401Z,6.83
2023-03-24T02:11:49.731Z,6.83
2023-03-24T02:14:16.131Z,6.82
2023-03-24T02:16:42.496Z,6.83
2023-03-24T02:19:08.907Z,6.79
2023-03-24T02:21:35.269Z,6.83
2023-03-24T02:24:01.654Z,6.76
2023-03-24T02:26:28.023Z,6.73
2023-03-24T02:28:54.413Z,6.86
2023-03-24T02:31:20.837Z,6.84
2023-03-24T02:33:47.141Z,6.83
2023-03-24T02:36:13.502Z,6.97
2023-03-24T02:38:39.883Z,6.91
2023-03-24T02:41:06.281Z,6.77
2023-03-24T02:43:32.653Z,6.76
2023-03-24T02:45:59.014Z,6.82
2023-03-24T02:48:25.399Z,6.89
2023-03-24T02:50:51.845Z,6.94
2023-03-24T02:53:18.152Z,6.96
2023-03-24T02:55:44.470Z,7.03
2023-03-24T02:58:10.893Z,6.98
2023-03-24T03:00:37.252Z,6.88
2023-03-24T03:03:03.620Z,6.81
2023-03-24T03:05:29.926Z,6.64
2023-03-24T03:07:56.367Z,6.52
2023-03-24T03:10:22.672Z,6.60
2023-03-24T03:12:50.194Z,6.65
2023-03-24T03:15:15.488Z,6.67
2023-03-24T03:17:41.871Z,6.69
2023-03-24T03:20:08.214Z,6.75
2023-03-24T03:22:34.605Z,6.78
2023-03-24T03:25:00.937Z,6.74
2023-03-24T03:27:27.385Z,6.69
2023-03-24T03:29:53.658Z,6.69
2023-03-24T03:32:20.010Z,6.75
2023-03-24T03:34:46.350Z,6.80
2023-03-24T03:37:12.776Z,6.82
2023-03-24T03:39:39.086Z,6.81
2023-03-24T03:42:05.473Z,6.76
2023-03-24T03:44:31.898Z,6.68
2023-03-24T03:46:58.236Z,6.71
2023-03-24T03:49:24.613Z,6.62
2023-03-24T03:51:50.991Z,6.58
2023-03-24T03:54:17.360Z,6.52
2023-03-24T03:56:43.729Z,6.42
2023-03-24T03:59:10.041Z,6.32
2023-03-24T04:01:36.489Z,6.29
2023-03-24T04:04:02.777Z,6.22
2023-03-24T04:06:29.119Z,6.15
2023-03-24T04:08:58.000Z,6.12
2023-03-24T04:11:24.402Z,6.10
2023-03-24T04:13:50.759Z,6.12
2023-03-24T04:16:17.234Z,6.09
2023-03-24T04:18:43.519Z,5.95
2023-03-24T04:21:09.942Z,5.85
2023-03-24T04:23:36.345Z,5.83
2023-03-24T04:26:02.727Z,5.80
2023-03-24T04:28:29.083Z,5.82
2023-03-24T04:30:55.521Z,5.93
2023-03-24T04:33:21.893Z,6.03
2023-03-24T04:35:48.379Z,6.26
2023-03-24T04:38:14.761Z,6.33
2023-03-24T04:40:41.140Z,6.48
2023-03-24T04:43:07.479Z,6.63
2023-03-24T04:45:33.936Z,6.78
2023-03-24T04:48:00.333Z,6.97
2023-03-24T04:50:26.668Z,6.98
2023-03-24T04:52:53.095Z,7.17
2023-03-24T04:55:19.427Z,7.01
2023-03-24T04:57:45.802Z,7.12
2023-03-24T05:00:12.232Z,7.26
2023-03-24T05:02:38.603Z,7.68
2023-03-24T05:05:04.952Z,7.87
2023-03-24T05:07:31.358Z,8.09
2023-03-24T05:09:57.722Z,8.34
2023-03-24T05:12:24.082Z,8.55
2023-03-24T05:14:50.470Z,8.81
2023-03-24T05:17:16.788Z,9.15
2023-03-24T05:19:43.214Z,9.14
2023-03-24T05:22:09.549Z,9.43
2023-03-24T05:24:35.901Z,9.53
2023-03-24T05:27:02.273Z,9.85
2023-03-24T05:29:28.625Z,9.82
2023-03-24T05:31:54.979Z,9.96
2023-03-24T05:34:21.377Z,10.19
2023-03-24T05:36:47.735Z,10.21
2023-03-24T05:39:14.072Z,10.46
2023-03-24T05:41:40.413Z,10.27
2023-03-24T05:44:06.759Z,10.45
2023-03-24T05:46:33.150Z,10.66
2023-03-24T05:48:59.616Z,10.72
2023-03-24T05:51:25.988Z,10.74
2023-03-24T05:53:52.353Z,11.07
2023-03-24T05:56:19.084Z,11.32
2023-03-24T05:58:45.455Z,11.05
2023-03-24T06:01:11.755Z,10.97
2023-03-24T06:03:38.392Z,10.90
2023-03-24T06:06:04.511Z,11.31
2023-03-24T06:08:30.887Z,11.54
2023-03-24T06:10:57.238Z,11.36
2023-03-24T06:13:23.723Z,11.59
2023-03-24T06:15:50.115Z,11.93
2023-03-24T06:18:16.419Z,12.33
2023-03-24T06:20:42.839Z,12.35
2023-03-24T06:23:09.230Z,12.31
2023-03-24T06:25:35.543Z,12.30
2023-03-24T06:28:02.048Z,12.46
2023-03-24T06:30:30.697Z,12.51
2023-03-24T06:32:54.729Z,12.40
2023-03-24T06:35:21.160Z,12.64
2023-03-24T06:37:47.534Z,13.18
2023-03-24T06:40:13.868Z,12.83
2023-03-24T06:42:40.297Z,12.81
2023-03-24T06:45:06.675Z,12.45
2023-03-24T06:47:33.363Z,12.54
2023-03-24T06:49:59.719Z,12.56
2023-03-24T06:52:26.054Z,13.03
2023-03-24T06:54:52.463Z,13.45
2023-03-24T06:57:18.830Z,13.76
2023-03-24T06:59:45.698Z,13.83
2023-03-24T07:02:12.430Z,14.10
2023-03-24T07:04:38.800Z,14.12
2023-03-24T07:07:38.136Z,14.50
2023-03-24T07:09:31.622Z,14.28
2023-03-24T07:11:58.498Z,14.72
2023-03-24T07:14:25.670Z,14.32
2023-03-24T07:16:53.069Z,14.34
2023-03-24T07:19:22.231Z,14.13
2023-03-24T07:21:51.366Z,14.00
2023-03-24T07:24:17.846Z,14.54
2023-03-24T07:26:44.218Z,15.12
2023-03-24T07:29:10.906Z,15.47
2023-03-24T07:31:37.264Z,15.51
2023-03-24T07:34:03.573Z,15.75
2023-03-24T07:36:33.163Z,16.26
2023-03-24T07:38:57.441Z,16.29
2023-03-24T07:41:24.121Z,16.74
2023-03-24T07:43:50.502Z,16.73
2023-03-24T07:46:16.931Z,16.24
2023-03-24T07:48:43.252Z,16.77
2023-03-24T07:51:09.610Z,17.03
2023-03-24T07:53:36.088Z,17.51
2023-03-24T07:56:02.446Z,17.21
2023-03-24T07:58:28.795Z,17.33
2023-03-24T08:00:55.173Z,17.75
2023-03-24T08:03:21.654Z,18.09
2023-03-24T08:05:48.361Z,17.75
2023-03-24T08:08:14.638Z,17.34
2023-03-24T08:10:41.008Z,17.30
2023-03-24T08:13:07.419Z,17.47
2023-03-24T08:15:34.874Z,17.85
2023-03-24T08:18:01.311Z,17.83
2023-03-24T08:20:27.577Z,17.93
2023-03-24T08:22:53.959Z,18.44
2023-03-24T08:25:20.344Z,18.38
2023-03-24T08:27:46.687Z,18.03
2023-03-24T08:30:13.049Z,17.94
2023-03-24T08:32:39.429Z,18.07
2023-03-24T08:35:05.866Z,18.08
2023-03-24T08:37:32.229Z,18.59
2023-03-24T08:39:58.661Z,18.36
2023-03-24T08:42:24.994Z,18.89
2023-03-24T08:44:51.355Z,18.49
2023-03-24T08:47:17.781Z,18.85
2023-03-24T08:49:44.162Z,19.72
2023-03-24T08:52:10.537Z,19.72
2023-03-24T08:54:36.902Z,19.35
2023-03-24T08:57:03.366Z,19.21
2023-03-24T08:59:29.690Z,20.16
2023-03-24T09:01:56.090Z,20.11
2023-03-24T09:04:22.483Z,20.62
2023-03-24T09:06:49.845Z,20.94
2023-03-24T09:09:16.161Z,21.00
2023-03-24T09:11:42.574Z,21.07
2023-03-24T09:14:08.944Z,21.41
2023-03-24T09:16:35.363Z,21.66
2023-03-24T09:19:01.794Z,21.57
2023-03-24T09:21:28.138Z,21.74
2023-03-24T09:23:54.473Z,22.06
2023-03-24T09:26:23.393Z,21.88
2023-03-24T09:28:49.717Z,22.17
2023-03-24T09:31:16.136Z,22.25
2023-03-24T09:33:42.870Z,22.25
2023-03-24T09:36:09.283Z,22.06
2023-03-24T09:38:36.664Z,22.17
2023-03-24T09:41:03.381Z,22.16
2023-03-24T09:43:29.450Z,21.62
2023-03-24T09:45:55.804Z,21.76
2023-03-24T09:48:22.187Z,22.23
2023-03-24T09:50:48.593Z,22.49
2023-03-24T09:53:14.943Z,22.63
2023-03-24T09:55:41.631Z,22.89
2023-03-24T09:58:07.995Z,23.28
2023-03-24T10:00:34.553Z,23.12
2023-03-24T10:03:00.732Z,23.10
2023-03-24T10:05:27.040Z,23.64
2023-03-24T10:07:57.036Z,24.08
2023-03-24T10:10:23.791Z,24.12
2023-03-24T10:12:50.152Z,24.63
2023-03-24T10:15:24.346Z,24.85
2023-03-24T10:17:42.990Z,24.99
2023-03-24T10:20:09.318Z,24.65
2023-03-24T10:22:35.718Z,24.30
2023-03-24T10:25:02.128Z,24.08
2023-03-24T10:27:29.551Z,23.77
2023-03-24T10:29:55.934Z,23.87
2023-03-24T10:32:22.580Z,23.75
2023-03-24T10:34:48.811Z,23.79
2023-03-24T10:37:15.261Z,23.66
2023-03-24T10:39:45.004Z,23.76
2023-03-24T10:42:08.248Z,24.04
2023-03-24T10:44:34.609Z,24.56
2023-03-24T10:47:01.449Z,24.53
2023-03-24T10:49:30.280Z,25.00
2023-03-24T10:51:56.622Z,25.23
2023-03-24T10:54:23.051Z,24.60
2023-03-24T10:56:49.529Z,24.18
2023-03-24T10:59:15.872Z,25.00
2023-03-24T11:01:42.243Z,25.06
2023-03-24T11:04:08.592Z,24.68
2023-03-24T11:06:37.089Z,24.80
2023-03-24T11:09:03.473Z,24.46
2023-03-24T11:11:29.799Z,24.80
2023-03-24T11:13:56.235Z,24.62
2023-03-24T11:16:22.701Z,24.92
2023-03-24T11:18:49.084Z,24.68
2023-03-24T11:21:15.431Z,24.58
2023-03-24T11:23:41.905Z,25.01
2023-03-24T11:26:08.271Z,24.36
2023-03-24T11:28:34.648Z,24.82
2023-03-24T11:31:01.136Z,24.77
2023-03-24T11:33:34.553Z,24.30
2023-03-24T11:36:05.043Z,24.16
2023-03-24T11:38:20.183Z,24.68
2023-03-24T11:40:46.523Z,25.13
2023-03-24T11:43:12.917Z,24.77
2023-03-24T11:45:39.281Z,25.03
2023-03-24T11:48:05.687Z,25.15
2023-03-24T11:50:32.026Z,25.41
2023-03-24T11:52:58.407Z,25.23
2023-03-24T11:55:24.913Z,25.15
2023-03-24T11:57:51.251Z,25.39
2023-03-24T12:00:17.945Z,25.25
2023-03-24T12:02:44.428Z,25.17
2023-03-24T12:05:10.656Z,25.35
2023-03-24T12:07:37.030Z,25.56
2023-03-24T12:10:03.386Z,25.95
2023-03-24T12:12:29.820Z,25.40
2023-03-24T12:14:56.209Z,24.93
2023-03-24T12:17:22.644Z,24.93
2023-03-24T12:19:48.936Z,24.92
2023-03-24T12:22:15.350Z,25.44
2023-03-24T12:24:41.740Z,25.82
2023-03-24T12:27:08.138Z,26.16
2023-03-24T12:29:34.521Z,26.56
2023-03-24T12:32:01.562Z,26.25
2023-03-24T12:34:27.949Z,26.03
2023-03-24T12:36:54.364Z,26.28
2023-03-24T12:39:20.729Z,26.54
2023-03-24T12:41:47.141Z,26.98
2023-03-24T12:44:13.494Z,26.97
2023-03-24T12:46:47.906Z,25.72
2023-03-24T12:49:06.274Z,26.68
2023-03-24T12:51:32.618Z,26.63
2023-03-24T12:53:59.014Z,26.20
2023-03-24T12:56:25.325Z,25.51
2023-03-24T12:58:51.736Z,25.08
2023-03-24T13:01:18.229Z,25.06
2023-03-24T13:03:44.471Z,24.82
2023-03-24T13:06:16.979Z,24.59
2023-03-24T13:08:37.220Z,24.35
2023-03-24T13:11:03.964Z,24.23
2023-03-24T13:13:30.288Z,24.12
2023-03-24T13:15:56.637Z,23.91
2023-03-24T13:18:23.242Z,23.79
2023-03-24T13:20:49.600Z,23.58
2023-03-24T13:23:15.991Z,23.37
2023-03-24T13:25:42.413Z,23.26
2023-03-24T13:28:08.822Z,23.14
2023-03-24T13:30:35.183Z,23.23
2023-03-24T13:33:01.844Z,22.87
2023-03-24T13:35:28.141Z,22.75
2023-03-24T13:37:54.757Z,22.92
2023-03-24T13:40:21.194Z,23.02
2023-03-24T13:42:47.522Z,22.99
2023-03-24T13:45:14.060Z,22.99
2023-03-24T13:47:40.453Z,22.71
2023-03-24T13:50:06.844Z,22.63
2023-03-24T13:52:33.360Z,22.70
2023-03-24T13:54:59.789Z,22.70
2023-03-24T13:57:26.154Z,22.80
2023-03-24T13:59:52.599Z,22.95
2023-03-24T14:02:19.253Z,22.71
2023-03-24T14:04:46.077Z,22.71
2023-03-24T14:07:12.409Z,22.67
2023-03-24T14:09:38.841Z,22.73
2023-03-24T14:12:06.317Z,22.63
2023-03-24T14:14:31.598Z,22.57
2023-03-24T14:16:57.971Z,22.57
2023-03-24T14:19:24.309Z,22.39
2023-03-24T14:21:50.761Z,22.33
2023-03-24T14:24:17.117Z,22.43
2023-03-24T14:26:43.484Z,22.53
2023-03-24T14:29:09.956Z,22.44
2023-03-24T14:31:36.374Z,22.46
2023-03-24T14:34:02.704Z,22.52
2023-03-24T14:36:29.066Z,22.53
2023-03-24T14:38:55.445Z,22.49
2023-03-24T14:41:21.781Z,22.19
2023-03-24T14:43:48.218Z,22.21
2023-03-24T14:46:14.627Z,22.29
2023-03-24T14:48:40.923Z,22.40
2023-03-24T14:51:08.393Z,22.38
2023-03-24T14:53:34.737Z,22.23
2023-03-24T14:56:01.070Z,22.19
2023-03-24T14:58:27.632Z,22.19
2023-03-24T15:01:06.353Z,22.19
2023-03-24T15:03:20.503Z,22.23
2023-03-24T15:05:46.773Z,22.21
2023-03-24T15:08:13.115Z,22.18
2023-03-24T15:10:39.536Z,22.00
2023-03-24T15:13:05.915Z,22.00
2023-03-24T15:15:32.281Z,21.99
2023-03-24T15:17:59.162Z,21.93
2023-03-24T15:20:25.383Z,21.92
2023-03-24T15:22:52.984Z,21.92
2023-03-24T15:25:19.254Z,21.81
2023-03-24T15:27:45.682Z,21.74
2023-03-24T15:30:13.277Z,21.72
2023-03-24T15:32:39.691Z,21.61
2023-03-24T15:35:06.056Z,21.54
2023-03-24T15:37:32.695Z,21.37
2023-03-24T15:40:09.106Z,21.14
2023-03-24T15:42:25.375Z,20.94
2023-03-24T15:44:51.741Z,20.85
2023-03-24T15:47:18.127Z,20.83
2023-03-24T15:49:44.559Z,20.75
2023-03-24T15:52:10.867Z,20.69
2023-03-24T15:54:37.196Z,20.63
2023-03-24T15:57:03.598Z,20.58
2023-03-24T15:59:30.045Z,20.54
2023-03-24T16:01:56.417Z,20.52
2023-03-24T16:04:22.901Z,20.47
2023-03-24T16:06:50.567Z,20.44
2023-03-24T16:09:15.533Z,20.40
2023-03-24T16:11:41.978Z,20.38
2023-03-24T16:14:08.343Z,20.38
2023-03-24T16:16:34.786Z,20.31
2023-03-24T16:19:01.243Z,20.24
2023-03-24T16:21:27.729Z,20.17
2023-03-24T16:23:53.954Z,20.04
2023-03-24T16:26:20.321Z,19.90
2023-03-24T16:28:46.678Z,19.84
2023-03-24T16:31:13.135Z,19.77
2023-03-24T16:33:39.434Z,19.73
2023-03-24T16:36:06.003Z,19.70
2023-03-24T16:38:32.326Z,19.65
2023-03-24T16:40:58.718Z,19.59
2023-03-24T16:43:25.102Z,19.53
2023-03-24T16:45:51.550Z,19.48
2023-03-24T16:48:17.811Z,19.42
2023-03-24T16:50:44.501Z,19.36
2023-03-24T16:53:10.845Z,19.24
2023-03-24T16:55:37.292Z,19.13
2023-03-24T16:58:03.681Z,19.04
2023-03-24T17:00:30.202Z,18.95
2023-03-24T17:02:56.843Z,18.85
2023-03-24T17:05:23.166Z,18.72
2023-03-24T17:07:49.565Z,18.64
2023-03-24T17:10:15.980Z,18.57
2023-03-24T17:12:42.359Z,18.48
2023-03-24T17:15:08.747Z,18.39
2023-03-24T17:17:35.182Z,18.31
2023-03-24T17:20:03.957Z,18.22
2023-03-24T17:22:27.922Z,18.08
2023-03-24T17:24:54.307Z,17.92
2023-03-24T17:27:20.735Z,17.68
2023-03-24T17:29:47.175Z,17.26
2023-03-24T17:32:13.552Z,16.95
2023-03-24T17:34:39.891Z,16.64
2023-03-24T17:37:06.288Z,16.43
2023-03-24T17:39:32.694Z,16.24
2023-03-24T17:41:59.082Z,16.10
2023-03-24T17:44:25.436Z,15.98
2023-03-24T17:46:51.802Z,15.84
2023-03-24T17:49:18.185Z,15.67
2023-03-24T17:51:44.551Z,15.55
2023-03-24T17:54:10.887Z,15.46
2023-03-24T17:56:37.298Z,15.37
2023-03-24T17:59:03.635Z,15.29
2023-03-24T18:01:30.265Z,15.20
2023-03-24T18:03:56.433Z,15.09
2023-03-24T18:06:22.841Z,14.99
2023-03-24T18:08:49.215Z,14.93
2023-03-24T18:11:15.652Z,14.88
2023-03-24T18:13:42.077Z,14.84
2023-03-24T18:16:19.824Z,14.82
2023-03-24T18:18:34.776Z,14.75
2023-03-24T18:21:01.197Z,14.70
2023-03-24T18:23:27.559Z,14.64
2023-03-24T18:25:53.938Z,14.60
2023-03-24T18:28:20.266Z,14.56
2023-03-24T18:30:46.718Z,14.54
2023-03-24T18:33:13.008Z,14.47
2023-03-24T18:35:39.474Z,14.41
2023-03-24T18:38:06.081Z,14.39
2023-03-24T18:40:32.475Z,14.36
2023-03-24T18:42:58.802Z,14.31
2023-03-24T18:45:25.206Z,14.28
2023-03-24T18:47:51.636Z,14.25
2023-03-24T18:50:18.194Z,14.21
2023-03-24T18:52:44.463Z,14.14
2023-03-24T18:55:10.812Z,14.04
2023-03-24T18:57:37.172Z,14.04
2023-03-24T19:00:03.534Z,14.02
2023-03-24T19:02:29.983Z,13.99
2023-03-24T19:04:56.249Z,13.97
2023-03-24T19:07:22.623Z,13.95
2023-03-24T19:09:49.023Z,13.88
2023-03-24T19:12:15.387Z,13.91
2023-03-24T19:14:41.902Z,13.91
2023-03-24T19:17:08.322Z,13.91
2023-03-24T19:19:34.620Z,13.88
2023-03-24T19:22:01.020Z,13.89
2023-03-24T19:24:27.400Z,13.83
2023-03-24T19:26:53.743Z,13.75
2023-03-24T19:29:20.238Z,13.70
2023-03-24T19:31:46.563Z,13.64
2023-03-24T19:34:13.003Z,13.53
2023-03-24T19:36:39.403Z,13.51
2023-03-24T19:39:05.845Z,13.43
2023-03-24T19:41:32.201Z,13.42
2023-03-24T19:43:58.581Z,13.38
2023-03-24T19:46:25.194Z,13.36
2023-03-24T19:48:54.477Z,13.35
2023-03-24T19:51:20.764Z,13.34
2023-03-24T19:53:47.125Z,13.31
2023-03-24T19:56:13.494Z,13.31
2023-03-24T19:58:40.371Z,13.28
2023-03-24T20:01:06.676Z,13.23
2023-03-24T20:03:33.126Z,13.21
2023-03-24T20:05:59.461Z,13.22
2023-03-24T20:08:25.899Z,13.20
2023-03-24T20:10:52.206Z,13.20
2023-03-24T20:13:18.618Z,13.18
2023-03-24T20:15:45.029Z,13.20
2023-03-24T20:18:11.303Z,13.12
2023-03-24T20:20:37.688Z,13.07
2023-03-24T20:23:04.098Z,13.05
2023-03-24T20:25:30.449Z,12.99
2023-03-24T20:27:56.810Z,13.00
2023-03-24T20:30:23.135Z,12.96
2023-03-24T20:32:49.561Z,12.92
2023-03-24T20:35:16.201Z,12.90
2023-03-24T20:37:42.687Z,12.88
2023-03-24T20:40:09.011Z,12.83
2023-03-24T20:42:35.469Z,12.81
2023-03-24T20:45:01.818Z,12.77
2023-03-24T20:47:28.205Z,12.70
2023-03-24T20:49:54.557Z,12.64
2023-03-24T20:52:20.899Z,12.60
2023-03-24T20:54:47.218Z,12.56
2023-03-24T20:57:13.862Z,12.54
2023-03-24T20:59:40.186Z,12.53
2023-03-24T21:02:06.657Z,12.52
2023-03-24T21:04:32.940Z,12.50
2023-03-24T21:06:59.371Z,12.48
2023-03-24T21:09:28.796Z,12.45
2023-03-24T21:11:55.231Z,12.41
2023-03-24T21:14:21.592Z,12.37
2023-03-24T21:16:48.052Z,12.38
2023-03-24T21:19:14.325Z,12.40
2023-03-24T21:21:40.686Z,12.41
2023-03-24T21:24:07.058Z,12.37
2023-03-24T21:26:33.449Z,12.35
2023-03-24T21:28:59.857Z,12.31
2023-03-24T21:31:26.274Z,12.30
2023-03-24T21:33:52.659Z,12.31
2023-03-24T21:36:19.074Z,12.29
2023-03-24T21:38:45.385Z,12.23
2023-03-24T21:41:11.747Z,12.20
2023-03-24T21:43:38.099Z,12.22
2023-03-24T21:46:04.437Z,12.18
2023-03-24T21:48:31.004Z,12.18
2023-03-24T21:50:57.327Z,12.19
2023-03-24T21:53:23.665Z,12.15
2023-03-24T21:55:50.240Z,12.08
2023-03-24T21:58:16.364Z,12.00
2023-03-24T22:00:42.706Z,12.01
2023-03-24T22:03:09.210Z,12.01
2023-03-24T22:05:35.449Z,11.99
2023-03-24T22:08:01.772Z,11.95
2023-03-24T22:10:28.179Z,11.92
2023-03-24T22:12:54.552Z,11.98
2023-03-24T22:15:20.944Z,11.95
2023-03-24T22:17:47.279Z,11.92
2023-03-24T22:20:13.724Z,11.84
2023-03-24T22:22:40.058Z,11.81
2023-03-24T22:25:06.649Z,11.80
2023-03-24T22:27:32.987Z,11.75
2023-03-24T22:29:59.354Z,11.68
2023-03-24T22:32:25.822Z,11.65
2023-03-24T22:34:52.155Z,11.60
2023-03-24T22:37:18.498Z,11.56
2023-03-24T22:39:44.865Z,11.54
2023-03-24T22:42:11.194Z,11.49
2023-03-24T22:44:37.540Z,11.48
2023-03-24T22:47:03.933Z,11.45
2023-03-24T22:49:30.273Z,11.49
2023-03-24T22:51:56.644Z,11.47
2023-03-24T22:54:23.016Z,11.43
2023-03-24T22:56:49.442Z,11.41
2023-03-24T22:59:15.818Z,11.38
2023-03-24T23:01:42.181Z,11.31
2023-03-24T23:04:08.809Z,11.27
2023-03-24T23:06:35.156Z,11.28
2023-03-24T23:09:01.565Z,11.29
2023-03-24T23:11:27.924Z,11.27
2023-03-24T23:13:54.304Z,11.19
2023-03-24T23:16:20.673Z,11.14
2023-03-24T23:18:46.981Z,11.10
2023-03-24T23:21:13.295Z,11.01
2023-03-24T23:23:39.654Z,10.92
2023-03-24T23:26:05.980Z,10.87
2023-03-24T23:28:32.363Z,10.91
2023-03-24T23:30:58.686Z,10.95
2023-03-24T23:33:25.111Z,10.96
2023-03-24T23:35:51.629Z,11.06
2023-03-24T23:38:17.802Z,11.11
2023-03-24T23:40:44.181Z,11.14
2023-03-24T23:43:10.509Z,11.11
2023-03-24T23:45:36.944Z,11.01
2023-03-24T23:48:03.295Z,10.88
2023-03-24T23:50:29.639Z,10.88
2023-03-24T23:52:56.001Z,10.94
2023-03-24T23:55:22.331Z,10.97
2023-03-24T23:57:48.759Z,11.00
